• Join FlightAware (Why Join?)
  • Login
  • US Flag 
06:48AM EDT


 

Airport Tracker/Info


-or-


 

Live Flight TrackerFlight Track Log ✈ CTL13 ✈ 08-Apr-2013 ✈ KMDW - KGRR

Flight Track Log - Related Links

Times and Time Zones

All times are in EDT time to prevent confusion due to time zone crossing. See the CTL13 flight status page for this flight to view local times or setup timezone preferences in your user account.

Time Position Orientation Groundspeed Altitude Reporting Facility
EDT Latitude Longitude Course Direction KTS MPH feet Rate Location/Type
10:56PM 41.7833 -87.7167 90° East 118 136 1,700  Level Chicago TRACON
10:57PM 41.7833 -87.6667 90° East 128 147 2,900 1,200 Climbing Chicago TRACON
10:58PM 41.7667 -87.6333 124° Southeast 134 154 4,100 1,020 Climbing Chicago TRACON
10:59PM 41.7731 -87.5964 77° East 131 151 4,600 900 Climbing Chicago Center
11:00PM 41.7781 -87.5369 84° East 154 177 5,600 600 Climbing Chicago Center
11:01PM 41.8056 -87.4919 51° Northeast 153 176 5,900 120 Climbing Chicago Center
11:02PM 41.8350 -87.4364 55° Northeast 175 201 5,900  Level Chicago Center
11:03PM 41.8664 -87.3797 53° Northeast 188 216 6,000  Climbing Chicago Center
11:04PM 41.8967 -87.3231 54° Northeast 187 215 5,900 -60 Descending Chicago Center
11:05PM 41.9278 -87.2661 54° Northeast 191 220 5,900  Level Chicago Center
11:06PM 41.9650 -87.1992 53° Northeast 189 217 5,900  Level Chicago Center
11:07PM 41.9950 -87.1419 55° Northeast 188 216 5,900  Level Chicago Center
11:08PM 42.0269 -87.0867 52° Northeast 188 216 5,900  Level Chicago Center
11:09PM 42.0558 -87.0319 55° Northeast 188 216 5,900 240 Level Chicago Center
11:10PM 42.0853 -86.9783 53° Northeast 180 207 6,400 480 Climbing Chicago Center
11:11PM 42.1122 -86.9314 52° Northeast 162 186 6,900 240 Climbing Chicago Center
11:12PM 42.1417 -86.8786 53° Northeast 176 203 6,900  Level Chicago Center
11:13PM 42.1722 -86.8231 53° Northeast 183 211 6,900  Level Chicago Center
11:14PM 42.2008 -86.7683 55° Northeast 180 207 6,900  Level Chicago Center
11:15PM 42.2311 -86.7161 52° Northeast 178 205 6,900  Level Chicago Center
11:16PM 42.2617 -86.6597 54° Northeast 184 212 6,900  Level Chicago Center
11:17PM 42.2986 -86.5961 52° Northeast 181 208 6,900  Level Chicago Center
11:18PM 42.3261 -86.5431 55° Northeast 182 209 6,900  Level Chicago Center
11:19PM 42.3558 -86.4869 54° Northeast 183 211 6,900  Level Chicago Center
11:20PM 42.3861 -86.4311 54° Northeast 185 213 6,900  Level Chicago Center
11:21PM 42.4172 -86.3761 53° Northeast 184 212 6,900  Level Chicago Center
11:22PM 42.4475 -86.3200 54° Northeast 185 213 6,900  Level Chicago Center
11:23PM 42.4781 -86.2625 54° Northeast 188 216 6,900  Level Chicago Center
11:24PM 42.5039 -86.2019 60° Northeast 187 215 6,900  Level Chicago Center
11:25PM 42.5283 -86.1392 62° Northeast 188 216 6,900  Level Chicago Center
11:26PM 42.5597 -86.0661 60° Northeast 188 216 6,900  Level Chicago Center
11:27PM 42.5833 -86.0025 63° Northeast 189 217 6,900 -360 Level Chicago Center
11:28PM 42.6081 -85.9347 64° Northeast 197 227 6,200 -600 Descending Chicago Center
11:29PM 42.6347 -85.8667 62° Northeast 204 235 5,700 -600 Descending Chicago Center
11:30PM 42.6636 -85.8025 59° Northeast 203 234 5,000 -420 Descending Chicago Center
11:31PM 42.6917 -85.7411 58° Northeast 196 226 4,900 -60 Descending Chicago Center
11:32PM 42.7164 -85.6828 60° Northeast 185 213 4,900  Level Chicago Center
11:33PM 42.7406 -85.6214 62° Northeast 183 211 4,900  Level Chicago Center
11:34PM 42.7581 -85.5544 70° East 188 216 4,900  Level Chicago Center
11:35PM 42.7764 -85.4878 69° East 188 216 4,900  Level Chicago Center
11:36PM 42.7944 -85.4231 69° East 185 213 4,900 -420 Level Chicago Center
11:37PM 42.8183 -85.3422 68° East 190 219 4,100 -900 Descending Chicago Center
11:38PM 42.8364 -85.2742 70° East 192 221 3,100 -600 Descending Chicago Center
11:39PM 42.8703 -85.2756 358° North 157 181 2,900 -300 Descending Chicago Center
11:40PM 42.8889 -85.3147 303° West 131 151 2,600 -180 Descending Chicago Center
11:41PM 42.8983 -85.3589 286° West 124 143 2,600 -180 Level Chicago Center
11:42PM 42.8925 -85.4025 260° West 118 136 2,300 -480 Descending Chicago Center
11:43PM 42.8875 -85.4444 261° West 115 132 1,700 -600 Descending Chicago Center
11:44PM 42.8828 -85.4853 261° West 113 130 1,100 -420 Descending Chicago Center
11:45PM 42.8781 -85.5264 261° West 113 130 900 -240 Descending Chicago Center